sensor_id;sensor_type;location;lat;lon;timestamp;temperature;humidity
70246;SHT30;57637;49.272;8.590;2023-12-20T00:00:12;5.11;94.69
70246;SHT30;57637;49.272;8.590;2023-12-20T00:02:37;5.08;94.68
70246;SHT30;57637;49.272;8.590;2023-12-20T00:05:03;5.08;94.68
70246;SHT30;57637;49.272;8.590;2023-12-20T00:07:29;5.10;94.72
70246;SHT30;57637;49.272;8.590;2023-12-20T00:09:54;5.10;94.81
70246;SHT30;57637;49.272;8.590;2023-12-20T00:12:20;5.11;94.76
70246;SHT30;57637;49.272;8.590;2023-12-20T00:14:45;5.08;94.76
70246;SHT30;57637;49.272;8.590;2023-12-20T00:17:14;5.11;94.79
70246;SHT30;57637;49.272;8.590;2023-12-20T00:19:40;5.11;94.80
70246;SHT30;57637;49.272;8.590;2023-12-20T00:22:05;5.10;94.82
70246;SHT30;57637;49.272;8.590;2023-12-20T00:24:30;5.10;94.84
70246;SHT30;57637;49.272;8.590;2023-12-20T00:26:56;5.10;94.88
70246;SHT30;57637;49.272;8.590;2023-12-20T00:29:21;5.10;94.86
70246;SHT30;57637;49.272;8.590;2023-12-20T00:31:46;5.11;94.89
70246;SHT30;57637;49.272;8.590;2023-12-20T00:34:12;5.10;94.95
70246;SHT30;57637;49.272;8.590;2023-12-20T00:36:37;5.10;94.97
70246;SHT30;57637;49.272;8.590;2023-12-20T00:39:02;5.11;95.01
70246;SHT30;57637;49.272;8.590;2023-12-20T00:41:28;5.10;95.07
70246;SHT30;57637;49.272;8.590;2023-12-20T00:43:53;5.14;95.08
70246;SHT30;57637;49.272;8.590;2023-12-20T00:46:19;5.14;95.11
70246;SHT30;57637;49.272;8.590;2023-12-20T00:48:44;5.15;95.14
70246;SHT30;57637;49.272;8.590;2023-12-20T00:51:10;5.12;95.17
70246;SHT30;57637;49.272;8.590;2023-12-20T00:53:36;5.12;95.14
70246;SHT30;57637;49.272;8.590;2023-12-20T00:56:01;5.12;95.19
70246;SHT30;57637;49.272;8.590;2023-12-20T00:58:26;5.14;95.15
70246;SHT30;57637;49.272;8.590;2023-12-20T01:00:54;5.12;95.23
70246;SHT30;57637;49.272;8.590;2023-12-20T01:03:19;5.12;95.20
70246;SHT30;57637;49.272;8.590;2023-12-20T01:05:44;5.15;95.23
70246;SHT30;57637;49.272;8.590;2023-12-20T01:08:10;5.12;95.27
70246;SHT30;57637;49.272;8.590;2023-12-20T01:10:36;5.15;95.25
70246;SHT30;57637;49.272;8.590;2023-12-20T01:13:01;5.15;95.28
70246;SHT30;57637;49.272;8.590;2023-12-20T01:15:26;5.14;95.29
70246;SHT30;57637;49.272;8.590;2023-12-20T01:17:52;5.14;95.34
70246;SHT30;57637;49.272;8.590;2023-12-20T01:20:17;5.14;95.37
70246;SHT30;57637;49.272;8.590;2023-12-20T01:22:44;5.14;95.37
70246;SHT30;57637;49.272;8.590;2023-12-20T01:25:11;5.12;95.38
70246;SHT30;57637;49.272;8.590;2023-12-20T01:27:36;5.12;95.43
70246;SHT30;57637;49.272;8.590;2023-12-20T01:30:01;5.15;95.42
70246;SHT30;57637;49.272;8.590;2023-12-20T01:32:27;5.15;95.43
70246;SHT30;57637;49.272;8.590;2023-12-20T01:34:52;5.14;95.44
70246;SHT30;57637;49.272;8.590;2023-12-20T01:37:18;5.17;95.47
70246;SHT30;57637;49.272;8.590;2023-12-20T01:39:43;5.12;95.47
70246;SHT30;57637;49.272;8.590;2023-12-20T01:42:08;5.15;95.50
70246;SHT30;57637;49.272;8.590;2023-12-20T01:44:34;5.14;95.53
70246;SHT30;57637;49.272;8.590;2023-12-20T01:46:59;5.17;95.59
70246;SHT30;57637;49.272;8.590;2023-12-20T01:49:25;5.17;95.59
70246;SHT30;57637;49.272;8.590;2023-12-20T01:51:50;5.17;95.63
70246;SHT30;57637;49.272;8.590;2023-12-20T01:54:16;5.15;95.63
70246;SHT30;57637;49.272;8.590;2023-12-20T01:56:44;5.20;95.63
70246;SHT30;57637;49.272;8.590;2023-12-20T01:59:10;5.20;95.67
70246;SHT30;57637;49.272;8.590;2023-12-20T02:01:36;5.20;95.64
70246;SHT30;57637;49.272;8.590;2023-12-20T02:04:01;5.21;95.65
70246;SHT30;57637;49.272;8.590;2023-12-20T02:06:30;5.21;95.62
70246;SHT30;57637;49.272;8.590;2023-12-20T02:08:58;5.20;95.63
70246;SHT30;57637;49.272;8.590;2023-12-20T02:11:24;5.24;95.66
70246;SHT30;57637;49.272;8.590;2023-12-20T02:13:50;5.21;95.64
70246;SHT30;57637;49.272;8.590;2023-12-20T02:16:16;5.24;95.71
70246;SHT30;57637;49.272;8.590;2023-12-20T02:18:42;5.22;95.71
70246;SHT30;57637;49.272;8.590;2023-12-20T02:21:09;5.25;95.66
70246;SHT30;57637;49.272;8.590;2023-12-20T02:23:34;5.22;95.66
70246;SHT30;57637;49.272;8.590;2023-12-20T02:26:00;5.24;95.67
70246;SHT30;57637;49.272;8.590;2023-12-20T02:28:26;5.25;95.72
70246;SHT30;57637;49.272;8.590;2023-12-20T02:30:51;5.24;95.74
70246;SHT30;57637;49.272;8.590;2023-12-20T02:33:17;5.25;95.72
70246;SHT30;57637;49.272;8.590;2023-12-20T02:35:42;5.25;95.67
70246;SHT30;57637;49.272;8.590;2023-12-20T02:38:07;5.25;95.73
70246;SHT30;57637;49.272;8.590;2023-12-20T02:40:33;5.30;95.72
70246;SHT30;57637;49.272;8.590;2023-12-20T02:42:58;5.27;95.68
70246;SHT30;57637;49.272;8.590;2023-12-20T02:45:23;5.28;95.74
70246;SHT30;57637;49.272;8.590;2023-12-20T02:47:49;5.30;95.71
70246;SHT30;57637;49.272;8.590;2023-12-20T02:50:14;5.30;95.71
70246;SHT30;57637;49.272;8.590;2023-12-20T02:52:39;5.30;95.73
70246;SHT30;57637;49.272;8.590;2023-12-20T02:55:05;5.28;95.73
70246;SHT30;57637;49.272;8.590;2023-12-20T02:57:30;5.31;95.73
70246;SHT30;57637;49.272;8.590;2023-12-20T02:59:57;5.32;95.75
70246;SHT30;57637;49.272;8.590;2023-12-20T03:02:22;5.30;95.70
70246;SHT30;57637;49.272;8.590;2023-12-20T03:04:47;5.31;95.74
70246;SHT30;57637;49.272;8.590;2023-12-20T03:07:13;5.31;95.72
70246;SHT30;57637;49.272;8.590;2023-12-20T03:09:38;5.28;95.69
70246;SHT30;57637;49.272;8.590;2023-12-20T03:12:04;5.31;95.77
70246;SHT30;57637;49.272;8.590;2023-12-20T03:14:29;5.31;95.76
70246;SHT30;57637;49.272;8.590;2023-12-20T03:16:54;5.32;95.73
70246;SHT30;57637;49.272;8.590;2023-12-20T03:19:20;5.30;95.76
70246;SHT30;57637;49.272;8.590;2023-12-20T03:21:45;5.28;95.75
70246;SHT30;57637;49.272;8.590;2023-12-20T03:24:11;5.31;95.78
70246;SHT30;57637;49.272;8.590;2023-12-20T03:26:36;5.30;95.78
70246;SHT30;57637;49.272;8.590;2023-12-20T03:29:01;5.31;95.81
70246;SHT30;57637;49.272;8.590;2023-12-20T03:31:27;5.32;95.84
70246;SHT30;57637;49.272;8.590;2023-12-20T03:33:52;5.31;95.83
70246;SHT30;57637;49.272;8.590;2023-12-20T03:36:18;5.32;95.88
70246;SHT30;57637;49.272;8.590;2023-12-20T03:38:44;5.31;95.83
70246;SHT30;57637;49.272;8.590;2023-12-20T03:41:10;5.34;95.86
70246;SHT30;57637;49.272;8.590;2023-12-20T03:43:35;5.32;95.83
70246;SHT30;57637;49.272;8.590;2023-12-20T03:46:00;5.34;95.84
70246;SHT30;57637;49.272;8.590;2023-12-20T03:48:28;5.34;95.89
70246;SHT30;57637;49.272;8.590;2023-12-20T03:50:54;5.32;95.85
70246;SHT30;57637;49.272;8.590;2023-12-20T03:53:19;5.34;95.88
70246;SHT30;57637;49.272;8.590;2023-12-20T03:55:44;5.34;95.91
70246;SHT30;57637;49.272;8.590;2023-12-20T03:58:10;5.32;95.89
70246;SHT30;57637;49.272;8.590;2023-12-20T04:00:35;5.31;95.90
70246;SHT30;57637;49.272;8.590;2023-12-20T04:03:01;5.32;95.91
70246;SHT30;57637;49.272;8.590;2023-12-20T04:05:26;5.35;95.89
70246;SHT30;57637;49.272;8.590;2023-12-20T04:07:51;5.34;95.92
70246;SHT30;57637;49.272;8.590;2023-12-20T04:10:17;5.31;95.89
70246;SHT30;57637;49.272;8.590;2023-12-20T04:12:42;5.34;95.89
70246;SHT30;57637;49.272;8.590;2023-12-20T04:15:07;5.31;95.92
70246;SHT30;57637;49.272;8.590;2023-12-20T04:17:35;5.35;95.93
70246;SHT30;57637;49.272;8.590;2023-12-20T04:20:01;5.32;95.92
70246;SHT30;57637;49.272;8.590;2023-12-20T04:22:26;5.32;95.96
70246;SHT30;57637;49.272;8.590;2023-12-20T04:24:52;5.32;95.97
70246;SHT30;57637;49.272;8.590;2023-12-20T04:27:17;5.34;95.96
70246;SHT30;57637;49.272;8.590;2023-12-20T04:29:43;5.36;95.98
70246;SHT30;57637;49.272;8.590;2023-12-20T04:32:08;5.38;95.95
70246;SHT30;57637;49.272;8.590;2023-12-20T04:34:33;5.35;95.95
70246;SHT30;57637;49.272;8.590;2023-12-20T04:36:58;5.36;95.97
70246;SHT30;57637;49.272;8.590;2023-12-20T04:39:24;5.38;95.98
70246;SHT30;57637;49.272;8.590;2023-12-20T04:41:49;5.39;96.00
70246;SHT30;57637;49.272;8.590;2023-12-20T04:44:15;5.44;96.00
70246;SHT30;57637;49.272;8.590;2023-12-20T04:46:40;5.41;95.94
70246;SHT30;57637;49.272;8.590;2023-12-20T04:49:06;5.39;95.98
70246;SHT30;57637;49.272;8.590;2023-12-20T04:51:34;5.41;95.98
70246;SHT30;57637;49.272;8.590;2023-12-20T04:54:00;5.39;96.00
70246;SHT30;57637;49.272;8.590;2023-12-20T04:56:26;5.42;96.00
70246;SHT30;57637;49.272;8.590;2023-12-20T04:58:51;5.42;95.98
70246;SHT30;57637;49.272;8.590;2023-12-20T05:01:17;5.42;95.99
70246;SHT30;57637;49.272;8.590;2023-12-20T05:03:42;5.42;96.02
70246;SHT30;57637;49.272;8.590;2023-12-20T05:06:07;5.44;96.02
70246;SHT30;57637;49.272;8.590;2023-12-20T05:08:34;5.45;95.99
70246;SHT30;57637;49.272;8.590;2023-12-20T05:10:59;5.45;95.97
70246;SHT30;57637;49.272;8.590;2023-12-20T05:13:25;5.48;95.95
70246;SHT30;57637;49.272;8.590;2023-12-20T05:15:50;5.51;95.98
70246;SHT30;57637;49.272;8.590;2023-12-20T05:18:16;5.51;95.96
70246;SHT30;57637;49.272;8.590;2023-12-20T05:20:41;5.60;96.05
70246;SHT30;57637;49.272;8.590;2023-12-20T05:23:06;5.55;95.90
70246;SHT30;57637;49.272;8.590;2023-12-20T05:25:32;5.59;95.86
70246;SHT30;57637;49.272;8.590;2023-12-20T05:27:57;5.58;95.86
70246;SHT30;57637;49.272;8.590;2023-12-20T05:30:23;5.59;95.86
70246;SHT30;57637;49.272;8.590;2023-12-20T05:32:48;5.58;95.80
70246;SHT30;57637;49.272;8.590;2023-12-20T05:35:14;5.55;95.73
70246;SHT30;57637;49.272;8.590;2023-12-20T05:37:40;5.54;95.73
70246;SHT30;57637;49.272;8.590;2023-12-20T05:40:06;5.59;95.71
70246;SHT30;57637;49.272;8.590;2023-12-20T05:42:35;5.56;95.72
70246;SHT30;57637;49.272;8.590;2023-12-20T05:45:00;5.60;95.67
70246;SHT30;57637;49.272;8.590;2023-12-20T05:47:26;5.58;95.70
70246;SHT30;57637;49.272;8.590;2023-12-20T05:49:51;5.58;95.65
70246;SHT30;57637;49.272;8.590;2023-12-20T05:52:16;5.58;95.64
70246;SHT30;57637;49.272;8.590;2023-12-20T05:54:42;5.54;95.64
70246;SHT30;57637;49.272;8.590;2023-12-20T05:57:07;5.55;95.68
70246;SHT30;57637;49.272;8.590;2023-12-20T05:59:32;5.54;95.68
70246;SHT30;57637;49.272;8.590;2023-12-20T06:01:58;5.55;95.70
70246;SHT30;57637;49.272;8.590;2023-12-20T06:04:23;5.52;95.72
70246;SHT30;57637;49.272;8.590;2023-12-20T06:06:48;5.55;95.73
70246;SHT30;57637;49.272;8.590;2023-12-20T06:09:14;5.58;95.73
70246;SHT30;57637;49.272;8.590;2023-12-20T06:11:40;5.56;95.73
70246;SHT30;57637;49.272;8.590;2023-12-20T06:14:05;5.58;95.74
70246;SHT30;57637;49.272;8.590;2023-12-20T06:16:31;5.58;95.72
70246;SHT30;57637;49.272;8.590;2023-12-20T06:18:56;5.65;95.75
70246;SHT30;57637;49.272;8.590;2023-12-20T06:21:22;5.75;95.83
70246;SHT30;57637;49.272;8.590;2023-12-20T06:23:47;5.76;95.79
70246;SHT30;57637;49.272;8.590;2023-12-20T06:26:12;5.73;95.71
70246;SHT30;57637;49.272;8.590;2023-12-20T06:28:38;5.75;95.67
70246;SHT30;57637;49.272;8.590;2023-12-20T06:31:03;5.75;95.67
70246;SHT30;57637;49.272;8.590;2023-12-20T06:33:29;5.77;95.62
70246;SHT30;57637;49.272;8.590;2023-12-20T06:35:56;5.67;95.58
70246;SHT30;57637;49.272;8.590;2023-12-20T06:38:21;5.67;95.57
70246;SHT30;57637;49.272;8.590;2023-12-20T06:40:47;5.62;95.52
70246;SHT30;57637;49.272;8.590;2023-12-20T06:43:12;5.62;95.56
70246;SHT30;57637;49.272;8.590;2023-12-20T06:45:38;5.62;95.54
70246;SHT30;57637;49.272;8.590;2023-12-20T06:48:04;5.62;95.57
70246;SHT30;57637;49.272;8.590;2023-12-20T06:50:30;5.65;95.58
70246;SHT30;57637;49.272;8.590;2023-12-20T06:52:55;5.65;95.57
70246;SHT30;57637;49.272;8.590;2023-12-20T06:55:20;5.66;95.51
70246;SHT30;57637;49.272;8.590;2023-12-20T06:57:46;5.65;95.58
70246;SHT30;57637;49.272;8.590;2023-12-20T07:00:11;5.63;95.52
70246;SHT30;57637;49.272;8.590;2023-12-20T07:02:37;5.60;95.51
70246;SHT30;57637;49.272;8.590;2023-12-20T07:05:03;5.59;95.51
70246;SHT30;57637;49.272;8.590;2023-12-20T07:07:29;5.54;95.47
70246;SHT30;57637;49.272;8.590;2023-12-20T07:09:54;5.55;95.50
70246;SHT30;57637;49.272;8.590;2023-12-20T07:12:20;5.52;95.52
70246;SHT30;57637;49.272;8.590;2023-12-20T07:14:46;5.49;95.53
70246;SHT30;57637;49.272;8.590;2023-12-20T07:17:14;5.49;95.56
70246;SHT30;57637;49.272;8.590;2023-12-20T07:19:40;5.46;95.59
70246;SHT30;57637;49.272;8.590;2023-12-20T07:22:06;5.45;95.55
70246;SHT30;57637;49.272;8.590;2023-12-20T07:24:32;5.41;95.56
70246;SHT30;57637;49.272;8.590;2023-12-20T07:27:01;5.34;95.55
70246;SHT30;57637;49.272;8.590;2023-12-20T07:29:27;5.28;95.54
70246;SHT30;57637;49.272;8.590;2023-12-20T07:31:52;5.24;95.62
70246;SHT30;57637;49.272;8.590;2023-12-20T07:34:19;5.17;95.64
70246;SHT30;57637;49.272;8.590;2023-12-20T07:36:47;5.11;95.64
70246;SHT30;57637;49.272;8.590;2023-12-20T07:45:38;4.94;95.69
70246;SHT30;57637;49.272;8.590;2023-12-20T07:48:40;4.91;95.73
70246;SHT30;57637;49.272;8.590;2023-12-20T07:54:51;4.79;95.75
70246;SHT30;57637;49.272;8.590;2023-12-20T07:58:08;4.79;95.81
70246;SHT30;57637;49.272;8.590;2023-12-20T08:00:34;4.85;95.84
70246;SHT30;57637;49.272;8.590;2023-12-20T08:02:59;4.91;95.90
70246;SHT30;57637;49.272;8.590;2023-12-20T08:05:24;4.90;95.75
70246;SHT30;57637;49.272;8.590;2023-12-20T08:07:51;4.94;95.70
70246;SHT30;57637;49.272;8.590;2023-12-20T08:10:20;4.88;95.62
70246;SHT30;57637;49.272;8.590;2023-12-20T08:12:57;4.91;95.60
70246;SHT30;57637;49.272;8.590;2023-12-20T08:16:01;4.91;95.59
70246;SHT30;57637;49.272;8.590;2023-12-20T08:18:43;4.94;95.54
70246;SHT30;57637;49.272;8.590;2023-12-20T08:21:11;4.97;95.49
70246;SHT30;57637;49.272;8.590;2023-12-20T08:23:39;4.98;95.45
70246;SHT30;57637;49.272;8.590;2023-12-20T08:26:35;5.03;95.33
70246;SHT30;57637;49.272;8.590;2023-12-20T08:29:00;5.04;95.24
70246;SHT30;57637;49.272;8.590;2023-12-20T08:31:27;5.04;95.12
70246;SHT30;57637;49.272;8.590;2023-12-20T08:33:53;5.10;95.03
70246;SHT30;57637;49.272;8.590;2023-12-20T08:36:26;5.18;94.90
70246;SHT30;57637;49.272;8.590;2023-12-20T08:38:51;5.27;94.76
70246;SHT30;57637;49.272;8.590;2023-12-20T08:41:18;5.39;94.67
70246;SHT30;57637;49.272;8.590;2023-12-20T08:43:45;5.51;94.46
70246;SHT30;57637;49.272;8.590;2023-12-20T08:46:10;5.58;94.19
70246;SHT30;57637;49.272;8.590;2023-12-20T08:48:36;5.70;93.92
70246;SHT30;57637;49.272;8.590;2023-12-20T08:51:02;5.76;93.65
70246;SHT30;57637;49.272;8.590;2023-12-20T08:53:28;5.80;93.40
70246;SHT30;57637;49.272;8.590;2023-12-20T08:55:53;5.80;93.22
70246;SHT30;57637;49.272;8.590;2023-12-20T08:58:19;5.90;92.99
70246;SHT30;57637;49.272;8.590;2023-12-20T09:00:45;6.02;92.88
70246;SHT30;57637;49.272;8.590;2023-12-20T09:03:10;6.06;92.75
70246;SHT30;57637;49.272;8.590;2023-12-20T09:05:37;6.06;92.48
70246;SHT30;57637;49.272;8.590;2023-12-20T09:08:02;6.09;92.11
70246;SHT30;57637;49.272;8.590;2023-12-20T09:10:28;6.13;91.92
70246;SHT30;57637;49.272;8.590;2023-12-20T09:12:53;6.20;91.64
70246;SHT30;57637;49.272;8.590;2023-12-20T09:15:22;6.17;90.97
70246;SHT30;57637;49.272;8.590;2023-12-20T09:17:50;6.18;90.88
70246;SHT30;57637;49.272;8.590;2023-12-20T09:20:31;6.18;90.59
70246;SHT30;57637;49.272;8.590;2023-12-20T09:22:56;6.26;90.64
70246;SHT30;57637;49.272;8.590;2023-12-20T09:25:36;6.31;90.47
70246;SHT30;57637;49.272;8.590;2023-12-20T09:28:02;6.38;90.14
70246;SHT30;57637;49.272;8.590;2023-12-20T09:30:31;6.48;89.60
70246;SHT30;57637;49.272;8.590;2023-12-20T09:32:57;6.50;89.08
70246;SHT30;57637;49.272;8.590;2023-12-20T09:35:42;6.58;88.16
70246;SHT30;57637;49.272;8.590;2023-12-20T09:38:09;6.68;88.11
70246;SHT30;57637;49.272;8.590;2023-12-20T09:40:35;6.77;87.92
70246;SHT30;57637;49.272;8.590;2023-12-20T09:43:10;6.84;87.63
70246;SHT30;57637;49.272;8.590;2023-12-20T09:45:39;6.93;87.20
70246;SHT30;57637;49.272;8.590;2023-12-20T09:48:05;7.01;86.56
70246;SHT30;57637;49.272;8.590;2023-12-20T09:50:32;7.06;86.27
70246;SHT30;57637;49.272;8.590;2023-12-20T09:52:58;7.12;85.81
70246;SHT30;57637;49.272;8.590;2023-12-20T09:55:27;7.15;85.38
70246;SHT30;57637;49.272;8.590;2023-12-20T09:57:55;7.15;84.89
70246;SHT30;57637;49.272;8.590;2023-12-20T10:00:20;7.32;85.49
70246;SHT30;57637;49.272;8.590;2023-12-20T10:05:29;7.26;84.22
70246;SHT30;57637;49.272;8.590;2023-12-20T10:07:59;7.39;84.39
70246;SHT30;57637;49.272;8.590;2023-12-20T10:10:25;7.50;83.78
70246;SHT30;57637;49.272;8.590;2023-12-20T10:13:04;7.52;82.93
70246;SHT30;57637;49.272;8.590;2023-12-20T10:15:31;7.57;82.97
70246;SHT30;57637;49.272;8.590;2023-12-20T10:17:58;7.50;83.18
70246;SHT30;57637;49.272;8.590;2023-12-20T10:20:24;7.36;82.74
70246;SHT30;57637;49.272;8.590;2023-12-20T10:22:49;7.33;82.70
70246;SHT30;57637;49.272;8.590;2023-12-20T10:25:15;7.32;82.79
70246;SHT30;57637;49.272;8.590;2023-12-20T10:27:40;7.42;82.63
70246;SHT30;57637;49.272;8.590;2023-12-20T10:30:06;7.59;82.50
70246;SHT30;57637;49.272;8.590;2023-12-20T10:32:31;7.63;82.11
70246;SHT30;57637;49.272;8.590;2023-12-20T10:34:57;7.64;82.35
70246;SHT30;57637;49.272;8.590;2023-12-20T10:37:24;7.70;82.37
70246;SHT30;57637;49.272;8.590;2023-12-20T10:39:50;7.81;81.67
70246;SHT30;57637;49.272;8.590;2023-12-20T10:42:17;8.04;81.79
70246;SHT30;57637;49.272;8.590;2023-12-20T10:44:46;8.31;81.10
70246;SHT30;57637;49.272;8.590;2023-12-20T10:47:12;8.48;80.64
70246;SHT30;57637;49.272;8.590;2023-12-20T10:49:38;8.48;80.19
70246;SHT30;57637;49.272;8.590;2023-12-20T10:52:05;8.32;79.94
70246;SHT30;57637;49.272;8.590;2023-12-20T10:54:31;8.38;80.42
70246;SHT30;57637;49.272;8.590;2023-12-20T10:56:57;8.44;80.29
70246;SHT30;57637;49.272;8.590;2023-12-20T10:59:23;8.28;80.01
70246;SHT30;57637;49.272;8.590;2023-12-20T11:01:50;8.20;80.64
70246;SHT30;57637;49.272;8.590;2023-12-20T11:04:30;8.08;81.07
70246;SHT30;57637;49.272;8.590;2023-12-20T11:07:21;7.84;80.87
70246;SHT30;57637;49.272;8.590;2023-12-20T11:09:58;7.75;81.22
70246;SHT30;57637;49.272;8.590;2023-12-20T11:12:32;7.69;81.77
70246;SHT30;57637;49.272;8.590;2023-12-20T11:15:04;7.66;82.10
70246;SHT30;57637;49.272;8.590;2023-12-20T11:17:31;7.57;82.18
70246;SHT30;57637;49.272;8.590;2023-12-20T11:22:25;7.47;82.43
70246;SHT30;57637;49.272;8.590;2023-12-20T11:24:52;7.50;82.91
70246;SHT30;57637;49.272;8.590;2023-12-20T11:27:18;7.47;83.03
70246;SHT30;57637;49.272;8.590;2023-12-20T11:29:51;7.44;83.03
70246;SHT30;57637;49.272;8.590;2023-12-20T11:34:57;7.44;83.51
70246;SHT30;57637;49.272;8.590;2023-12-20T11:37:31;7.46;83.73
70246;SHT30;57637;49.272;8.590;2023-12-20T11:40:06;7.47;83.61
70246;SHT30;57637;49.272;8.590;2023-12-20T11:42:37;7.50;83.76
70246;SHT30;57637;49.272;8.590;2023-12-20T11:45:04;7.52;83.86
70246;SHT30;57637;49.272;8.590;2023-12-20T11:47:30;7.53;84.03
70246;SHT30;57637;49.272;8.590;2023-12-20T11:49:56;7.53;84.28
70246;SHT30;57637;49.272;8.590;2023-12-20T11:52:22;7.54;84.36
70246;SHT30;57637;49.272;8.590;2023-12-20T11:54:47;7.53;84.30
70246;SHT30;57637;49.272;8.590;2023-12-20T11:57:13;7.52;84.84
70246;SHT30;57637;49.272;8.590;2023-12-20T11:59:38;7.50;85.10
70246;SHT30;57637;49.272;8.590;2023-12-20T12:02:04;7.52;85.21
70246;SHT30;57637;49.272;8.590;2023-12-20T12:04:29;7.56;85.48
70246;SHT30;57637;49.272;8.590;2023-12-20T12:06:55;7.54;85.54
70246;SHT30;57637;49.272;8.590;2023-12-20T12:09:20;7.47;85.46
70246;SHT30;57637;49.272;8.590;2023-12-20T12:11:45;7.47;85.36
70246;SHT30;57637;49.272;8.590;2023-12-20T12:14:11;7.50;85.49
70246;SHT30;57637;49.272;8.590;2023-12-20T12:16:37;7.47;85.47
70246;SHT30;57637;49.272;8.590;2023-12-20T12:19:02;7.34;85.24
70246;SHT30;57637;49.272;8.590;2023-12-20T12:21:29;7.29;85.42
70246;SHT30;57637;49.272;8.590;2023-12-20T12:23:58;7.23;85.84
70246;SHT30;57637;49.272;8.590;2023-12-20T12:26:31;7.32;87.12
70246;SHT30;57637;49.272;8.590;2023-12-20T12:28:56;7.57;87.54
70246;SHT30;57637;49.272;8.590;2023-12-20T12:31:22;7.44;86.00
70246;SHT30;57637;49.272;8.590;2023-12-20T12:33:50;7.33;85.45
70246;SHT30;57637;49.272;8.590;2023-12-20T12:36:15;7.22;85.45
70246;SHT30;57637;49.272;8.590;2023-12-20T12:38:42;7.18;85.59
70246;SHT30;57637;49.272;8.590;2023-12-20T12:41:08;7.13;85.34
70246;SHT30;57637;49.272;8.590;2023-12-20T12:43:35;7.10;85.47
70246;SHT30;57637;49.272;8.590;2023-12-20T12:46:01;7.05;85.42
70246;SHT30;57637;49.272;8.590;2023-12-20T12:48:26;7.09;85.68
70246;SHT30;57637;49.272;8.590;2023-12-20T12:50:53;7.03;85.30
70246;SHT30;57637;49.272;8.590;2023-12-20T12:53:19;6.98;85.41
70246;SHT30;57637;49.272;8.590;2023-12-20T12:55:45;6.95;85.71
70246;SHT30;57637;49.272;8.590;2023-12-20T12:58:10;6.93;85.89
70246;SHT30;57637;49.272;8.590;2023-12-20T13:00:36;6.91;85.71
70246;SHT30;57637;49.272;8.590;2023-12-20T13:03:02;6.84;85.58
70246;SHT30;57637;49.272;8.590;2023-12-20T13:05:28;6.82;85.88
70246;SHT30;57637;49.272;8.590;2023-12-20T13:07:54;6.78;85.73
70246;SHT30;57637;49.272;8.590;2023-12-20T13:10:20;6.77;85.79
70246;SHT30;57637;49.272;8.590;2023-12-20T13:12:45;6.71;86.01
70246;SHT30;57637;49.272;8.590;2023-12-20T13:15:10;6.74;86.16
70246;SHT30;57637;49.272;8.590;2023-12-20T13:17:36;6.68;85.90
70246;SHT30;57637;49.272;8.590;2023-12-20T13:20:02;6.65;85.53
70246;SHT30;57637;49.272;8.590;2023-12-20T13:22:28;6.65;85.74
70246;SHT30;57637;49.272;8.590;2023-12-20T13:24:53;6.69;85.85
70246;SHT30;57637;49.272;8.590;2023-12-20T13:27:18;6.81;86.66
70246;SHT30;57637;49.272;8.590;2023-12-20T13:29:44;6.75;85.97
70246;SHT30;57637;49.272;8.590;2023-12-20T13:32:09;6.69;85.91
70246;SHT30;57637;49.272;8.590;2023-12-20T13:34:35;6.69;86.18
70246;SHT30;57637;49.272;8.590;2023-12-20T13:37:00;6.65;86.50
70246;SHT30;57637;49.272;8.590;2023-12-20T13:39:26;6.63;86.78
70246;SHT30;57637;49.272;8.590;2023-12-20T13:41:51;6.61;86.98
70246;SHT30;57637;49.272;8.590;2023-12-20T13:44:20;6.65;87.31
70246;SHT30;57637;49.272;8.590;2023-12-20T13:46:45;6.65;87.35
70246;SHT30;57637;49.272;8.590;2023-12-20T13:49:11;6.68;87.53
70246;SHT30;57637;49.272;8.590;2023-12-20T13:51:37;6.71;87.82
70246;SHT30;57637;49.272;8.590;2023-12-20T13:54:03;6.72;88.01
70246;SHT30;57637;49.272;8.590;2023-12-20T13:56:29;6.72;88.11
70246;SHT30;57637;49.272;8.590;2023-12-20T13:58:54;6.69;88.44
70246;SHT30;57637;49.272;8.590;2023-12-20T14:01:20;6.63;88.73
70246;SHT30;57637;49.272;8.590;2023-12-20T14:03:45;6.58;89.04
70246;SHT30;57637;49.272;8.590;2023-12-20T14:06:10;6.54;89.38
70246;SHT30;57637;49.272;8.590;2023-12-20T14:08:38;6.50;89.46
70246;SHT30;57637;49.272;8.590;2023-12-20T14:11:04;6.47;89.55
70246;SHT30;57637;49.272;8.590;2023-12-20T14:13:29;6.47;89.53
70246;SHT30;57637;49.272;8.590;2023-12-20T14:15:56;6.45;89.55
70246;SHT30;57637;49.272;8.590;2023-12-20T14:18:21;6.42;89.54
70246;SHT30;57637;49.272;8.590;2023-12-20T14:20:47;6.42;89.62
70246;SHT30;57637;49.272;8.590;2023-12-20T14:23:13;6.42;89.62
70246;SHT30;57637;49.272;8.590;2023-12-20T14:25:41;6.44;89.43
70246;SHT30;57637;49.272;8.590;2023-12-20T14:28:07;6.44;89.51
70246;SHT30;57637;49.272;8.590;2023-12-20T14:30:32;6.38;89.28
70246;SHT30;57637;49.272;8.590;2023-12-20T14:32:58;6.42;89.22
70246;SHT30;57637;49.272;8.590;2023-12-20T14:35:24;6.44;89.23
70246;SHT30;57637;49.272;8.590;2023-12-20T14:37:49;6.37;88.90
70246;SHT30;57637;49.272;8.590;2023-12-20T14:40:15;6.38;88.87
70246;SHT30;57637;49.272;8.590;2023-12-20T14:42:44;6.36;88.67
70246;SHT30;57637;49.272;8.590;2023-12-20T14:45:10;6.36;88.67
70246;SHT30;57637;49.272;8.590;2023-12-20T14:47:36;6.33;88.61
70246;SHT30;57637;49.272;8.590;2023-12-20T14:50:02;6.24;88.52
70246;SHT30;57637;49.272;8.590;2023-12-20T14:52:29;6.21;88.53
70246;SHT30;57637;49.272;8.590;2023-12-20T14:54:55;6.13;88.57
70246;SHT30;57637;49.272;8.590;2023-12-20T14:57:20;6.11;88.82
70246;SHT30;57637;49.272;8.590;2023-12-20T14:59:46;6.05;88.89
70246;SHT30;57637;49.272;8.590;2023-12-20T15:02:11;6.00;89.05
70246;SHT30;57637;49.272;8.590;2023-12-20T15:04:37;5.92;89.15
70246;SHT30;57637;49.272;8.590;2023-12-20T15:07:02;5.87;89.23
70246;SHT30;57637;49.272;8.590;2023-12-20T15:09:30;5.83;89.35
70246;SHT30;57637;49.272;8.590;2023-12-20T15:11:55;5.83;89.55
70246;SHT30;57637;49.272;8.590;2023-12-20T15:14:21;5.80;89.66
70246;SHT30;57637;49.272;8.590;2023-12-20T15:16:46;5.85;89.80
70246;SHT30;57637;49.272;8.590;2023-12-20T15:19:12;5.87;89.80
70246;SHT30;57637;49.272;8.590;2023-12-20T15:21:37;5.89;89.77
70246;SHT30;57637;49.272;8.590;2023-12-20T15:24:07;5.92;89.73
70246;SHT30;57637;49.272;8.590;2023-12-20T15:26:40;5.93;89.72
70246;SHT30;57637;49.272;8.590;2023-12-20T15:29:06;5.95;89.68
70246;SHT30;57637;49.272;8.590;2023-12-20T15:31:31;5.97;89.67
70246;SHT30;57637;49.272;8.590;2023-12-20T15:33:58;5.96;89.61
70246;SHT30;57637;49.272;8.590;2023-12-20T15:36:24;5.96;89.62
70246;SHT30;57637;49.272;8.590;2023-12-20T15:38:49;5.99;89.58
70246;SHT30;57637;49.272;8.590;2023-12-20T15:41:18;6.02;89.74
70246;SHT30;57637;49.272;8.590;2023-12-20T15:43:44;6.02;89.66
70246;SHT30;57637;49.272;8.590;2023-12-20T15:46:10;6.03;89.61
70246;SHT30;57637;49.272;8.590;2023-12-20T15:48:35;6.05;89.69
70246;SHT30;57637;49.272;8.590;2023-12-20T15:51:07;6.05;89.61
70246;SHT30;57637;49.272;8.590;2023-12-20T15:53:33;6.05;89.60
70246;SHT30;57637;49.272;8.590;2023-12-20T15:55:59;6.00;89.57
70246;SHT30;57637;49.272;8.590;2023-12-20T15:58:29;6.02;89.66